Airfield :
LOGIN :

Register | Disclaimer

   EN    FR    IT 

 










Legend :    VFR   Marginal VFR   IFR   Intensive IFR   Very Intensive IFR
Visi :
Ceiling :
>= 8 km
>= 3000ft
5 to 8 km
1000 to 3000 ft
1500m to 5 km
500 to 1000 ft
800 to 1500m
200 to 500 ft
< 800m
< 200 ft
Symbols :   Thunderstorms  Fog  Heavy snow  Heavy precipitations  Wind > 20 kt
SIGMETs :     Misc.  Thunderstorms  Icing  Turbulence  Mountain Waves  Volcanic Ashes







- Airport Elevation : 29 ft
- IATA code : SVG


ENZV - Sola

CURRENT METAR :
  • 211150Z 31020KT 9999 VCSH FEW021CB BKN044 12/05 Q1010 TEMPO 34022G32KT SHRA

EXPIRED METARs :
  • 211120Z 30020KT 9999 VCSH FEW025CB SCT030 12/06 Q1010 TEMPO 34022G32KT SHRA
  • 211050Z 31017KT 9999 FEW024CB SCT034 13/06 Q1010 TEMPO 34020G30KT SHRA
  • 211020Z 32014KT 9999 VCSH FEW024CB SCT034 11/05 Q1010 TEMPO 34018G28KT SHRA
  • 210950Z 32013KT 9999 VCSH FEW027CB SCT045 11/06 Q1010 TEMPO 34018G28KT SHRA
  • 210920Z 32015KT 9999 VCSH SCT022CB BKN060 12/06 Q1010 TEMPO 34020G30KT SHRA

TAF TAF ENZV
Valid from the 21 at 12:00 until the 22 at 12:00 UTC


2112/2212 33018KT 9999 -SHRA FEW020TCU BKN035
TEMPO 2112/2118 SHRA BKN020CB
TEMPO 2112/2209 33022G32KT
BECMG 2209/2212 33025G35KT
No reported NOTAMs for that airfield.



MET'MAP, your aeronautical weather chart ! - Copyright ORBIFLY December 2007 - Disclaimer

ORBIFLY MET'MAP TEAM :

Programming & Development : Alexandra Zaïnal
Concept & Development : Baudouin d'Aumeries
Co-Development & Prog : Marc-Olivier Méhu
Technical & hardware support : Manuel Goepfert

Contact : metmap@orbifly.com




SOURCES & CREDITS :

   NOAA